< < Back
Terminal Aerodrome Forecast


Current Version              Previous Versions:   1  2  3  4  5  6  7  8  9  

Terminal Aerodrome Forecast

099
FTUS42 KILM 241700
TAFILM
TAF
KILM 241730Z 2418/2518 28016G25KT P6SM BKN007 OVC010
     FM241900 28016G25KT P6SM VCSH BKN010 OVC025
      TEMPO 2419/2421 3SM -RA BR
     FM242100 28016G25KT P6SM SCT025=



Latest METAR

290
SAUS70 KWBC 251600 RRB
MTRILM
METAR KILM 251553Z AUTO 00000KT 10SM CLR 08/01 A2999 RMK AO2 SLP156
T00830011


USA.gov is the U.S. government's official web portal to all federal, state and local government web resources and services.